Time;durP1;ratioP1;P1;durP2;ratioP2;P2;SDS_P1;SDS_P2;PMS_P1;PMS_P2;Temp;Humidity;BMP_temperature;BMP_pressure;BME280_temperature;BME280_humidity;BME280_pressure;Samples;Min_cycle;Max_cycle;Signal;HPM_P1;HPM_P2
2022/06/26 08:19:48;;;;;;;10.38;4.63;;;;;;;17.22;75.64;101481.47;5081137;27;20372;-75
2022/06/26 08:22:14;;;;;;;7.45;4.38;;;;;;;17.35;74.50;101489.66;5079559;28;20118;-75
2022/06/26 08:24:41;;;;;;;7.82;4.40;;;;;;;17.45;74.49;101485.72;5080501;28;20169;-75
2022/06/26 08:27:10;;;;;;;7.43;4.43;;;;;;;17.55;73.88;101494.06;5074439;28;20032;-76
2022/06/26 08:29:35;;;;;;;8.15;4.45;;;;;;;17.60;73.99;101492.06;5080343;28;20383;-75
2022/06/26 08:32:01;;;;;;;6.30;3.97;;;;;;;17.65;74.43;101490.09;5079565;28;20021;-75
2022/06/26 08:34:27;;;;;;;9.40;4.15;;;;;;;17.71;74.12;101495.06;5074855;28;20037;-75
2022/06/26 08:36:54;;;;;;;7.05;3.80;;;;;;;17.77;73.91;101498.31;5085025;28;20031;-75
2022/06/26 08:39:20;;;;;;;10.35;4.07;;;;;;;17.84;73.81;101495.38;5076144;28;20032;-75
2022/06/26 08:41:46;;;;;;;8.50;3.65;;;;;;;17.92;73.29;101481.84;5081122;28;20050;-76
2022/06/26 08:44:12;;;;;;;6.47;3.63;;;;;;;17.97;72.54;101479.00;5074355;28;20383;-75
2022/06/26 08:46:40;;;;;;;4.93;3.33;;;;;;;18.03;72.45;101487.50;5073681;28;20033;-76
2022/06/26 08:49:10;;;;;;;4.78;3.30;;;;;;;18.08;73.00;101494.34;5079657;28;20031;-75
2022/06/26 08:51:38;;;;;;;4.78;3.00;;;;;;;18.09;72.31;101493.41;5080734;28;20031;-75
2022/06/26 08:54:05;;;;;;;4.88;2.97;;;;;;;18.11;72.25;101502.06;5073947;28;20028;-75
2022/06/26 08:56:32;;;;;;;5.10;3.03;;;;;;;18.12;70.91;101503.78;5078765;28;20032;-76
2022/06/26 08:58:58;;;;;;;5.18;2.60;;;;;;;18.09;70.99;101511.84;5080985;28;20035;-74
2022/06/26 09:01:23;;;;;;;5.68;2.70;;;;;;;18.08;71.90;101510.97;5073595;28;20024;-73
2022/06/26 09:03:48;;;;;;;5.93;2.58;;;;;;;18.08;71.71;101508.34;5070890;28;20024;-76
2022/06/26 09:06:13;;;;;;;3.80;2.50;;;;;;;18.09;70.65;101501.31;5079619;28;20052;-75
2022/06/26 09:08:43;;;;;;;4.15;2.20;;;;;;;18.13;71.00;101508.13;5077581;28;20032;-76
2022/06/26 09:11:10;;;;;;;2.80;2.00;;;;;;;18.13;69.95;101505.47;5068725;28;20491;-75
2022/06/26 09:13:40;;;;;;;4.50;2.10;;;;;;;18.16;70.34;101498.31;5069857;28;20035;-76
2022/06/26 09:16:06;;;;;;;4.13;2.25;;;;;;;18.23;70.20;101498.88;5068430;28;20063;-76
2022/06/26 09:18:36;;;;;;;3.70;1.80;;;;;;;18.27;69.40;101496.94;5071402;28;20044;-76
2022/06/26 09:21:04;;;;;;;4.73;2.30;;;;;;;18.29;68.80;101493.28;5069504;28;20024;-76
2022/06/26 09:23:34;;;;;;;4.43;2.38;;;;;;;18.30;68.43;101497.63;5071493;28;20036;-76
2022/06/26 09:26:00;;;;;;;3.45;2.30;;;;;;;18.29;69.14;101509.09;5072352;28;20053;-75
2022/06/26 09:28:26;;;;;;;4.28;2.40;;;;;;;18.30;70.18;101512.59;5072149;28;20054;-76
2022/06/26 09:30:52;;;;;;;5.82;2.58;;;;;;;18.32;69.57;101501.06;5056501;28;20356;-75
2022/06/26 09:33:20;;;;;;;4.28;2.20;;;;;;;18.35;68.59;101503.53;5056932;28;20036;-76
2022/06/26 09:35:45;;;;;;;4.45;2.30;;;;;;;18.38;69.13;101488.53;5055195;28;20051;-75
2022/06/26 09:38:16;;;;;;;3.40;2.05;;;;;;;18.38;68.56;101496.44;5052688;28;20136;-76
2022/06/26 09:40:45;;;;;;;3.40;2.10;;;;;;;18.40;69.12;101497.22;5057210;28;20032;-76
2022/06/26 09:43:15;;;;;;;4.65;2.50;;;;;;;18.41;69.29;101505.03;5056980;28;20631;-75
2022/06/26 09:45:40;;;;;;;3.40;2.20;;;;;;;18.45;68.83;101511.00;5051097;28;20120;-75
2022/06/26 09:48:08;;;;;;;4.65;2.50;;;;;;;18.48;68.68;101521.38;5054616;28;20348;-75
2022/06/26 09:50:34;;;;;;;5.45;2.70;;;;;;;18.51;69.12;101518.59;5053664;28;20771;-76
2022/06/26 09:53:00;;;;;;;3.40;2.33;;;;;;;18.55;68.90;101528.09;5053880;28;20038;-76
2022/06/26 09:55:25;;;;;;;3.42;2.28;;;;;;;18.57;69.16;101520.97;5052024;28;20048;-76
2022/06/26 09:57:52;;;;;;;3.13;2.30;;;;;;;18.57;68.18;101520.97;5055292;28;20064;-76
2022/06/26 10:00:17;;;;;;;4.25;2.30;;;;;;;18.59;67.32;101518.22;5059470;28;20028;-75
2022/06/26 10:08:13;;;;;;;4.70;2.33;;;;;;;18.65;67.70;101534.59;5056581;28;20063;-76
2022/06/26 10:10:41;;;;;;;6.20;2.75;;;;;;;18.66;68.07;101531.03;5055317;28;20031;-76
2022/06/26 10:13:07;;;;;;;6.40;2.85;;;;;;;18.68;68.66;101536.25;5057375;28;20082;-76
2022/06/26 10:15:41;;;;;;;4.90;2.88;;;;;;;18.69;67.29;101545.88;5055995;28;20039;-76
2022/06/26 10:18:51;;;;;;;4.43;2.47;;;;;;;18.71;68.41;101541.34;5057188;28;20048;-77
2022/06/26 10:21:16;;;;;;;4.25;2.50;;;;;;;18.73;67.09;101543.94;5039828;28;20525;-76
2022/06/26 10:23:42;;;;;;;4.20;2.60;;;;;;;18.75;67.00;101549.97;5062837;28;20133;-74
2022/06/26 10:26:19;;;;;;;6.22;2.60;;;;;;;18.77;67.40;101553.41;5065599;28;20036;-74
2022/06/26 10:28:59;;;;;;;4.93;3.00;;;;;;;18.80;68.38;101550.59;5062638;28;20036;-77
2022/06/26 10:31:25;;;;;;;3.25;2.50;;;;;;;18.81;66.68;101554.94;5060336;28;20028;-76
2022/06/26 10:33:50;;;;;;;5.32;2.65;;;;;;;18.84;66.42;101552.16;5059793;28;20758;-77
2022/06/26 10:36:24;;;;;;;4.38;2.78;;;;;;;18.87;67.58;101559.91;5063061;28;20483;-76
2022/06/26 10:38:51;;;;;;;5.85;3.20;;;;;;;18.88;67.78;101540.53;5058254;28;20044;-75
2022/06/26 10:44:17;;;;;;;4.45;2.67;;;;;;;18.92;66.61;101557.03;5058595;28;20040;-76
2022/06/26 10:46:47;;;;;;;4.43;2.55;;;;;;;18.89;64.29;101558.06;5061300;28;20035;-76
2022/06/26 10:49:13;;;;;;;4.65;2.60;;;;;;;18.89;65.63;101558.06;5061412;28;20036;-76
2022/06/26 10:51:41;;;;;;;3.78;2.67;;;;;;;18.88;65.68;101561.63;5058339;28;20565;-76
2022/06/26 10:54:25;;;;;;;4.38;3.03;;;;;;;18.91;67.17;101553.56;5052822;28;20028;-76
2022/06/26 10:57:02;;;;;;;4.13;3.20;;;;;;;19.01;68.63;101561.03;5057452;28;20638;-77
2022/06/26 10:59:28;;;;;;;5.13;2.40;;;;;;;19.03;61.92;101561.81;5058428;28;20395;-77
2022/06/26 11:01:53;;;;;;;4.72;2.50;;;;;;;19.08;64.28;101559.81;5060676;28;20059;-78
2022/06/26 11:04:19;;;;;;;3.95;2.72;;;;;;;19.16;64.81;101551.50;5059413;28;20138;-77
2022/06/26 11:06:44;;;;;;;6.63;2.70;;;;;;;19.20;64.48;101546.00;5062019;28;20746;-77
2022/06/26 11:09:10;;;;;;;4.03;2.50;;;;;;;19.24;64.80;101550.19;5059723;28;20084;-76
2022/06/26 11:11:35;;;;;;;7.10;3.80;;;;;;;19.29;63.98;101549.94;5055170;28;20036;-76
2022/06/26 11:14:06;;;;;;;5.85;3.05;;;;;;;19.35;65.90;101554.91;5055379;28;20028;-76
2022/06/26 11:16:43;;;;;;;4.13;2.22;;;;;;;19.39;65.06;101553.81;5062664;28;20508;-76
2022/06/26 11:19:25;;;;;;;9.70;4.65;;;;;;;19.46;66.02;101550.84;5051889;28;20041;-77
2022/06/26 11:22:02;;;;;;;9.57;4.50;;;;;;;19.45;63.13;101544.75;5050141;28;20547;-77
2022/06/26 11:24:28;;;;;;;7.68;3.35;;;;;;;19.45;63.42;101541.22;5053017;28;20044;-79
2022/06/26 11:26:54;;;;;;;13.23;5.38;;;;;;;19.46;62.92;101530.63;5050571;28;20037;-79
2022/06/26 11:29:19;;;;;;;10.45;5.18;;;;;;;19.50;63.14;101526.84;5048110;28;20032;-78
2022/06/26 11:31:48;;;;;;;9.68;5.13;;;;;;;19.58;63.47;101520.34;5051766;28;20032;-78
2022/06/26 11:34:15;;;;;;;10.45;4.82;;;;;;;19.61;63.50;101515.75;5055300;28;20495;-79
2022/06/26 11:36:57;;;;;;;13.05;6.50;;;;;;;19.68;65.22;101519.78;5053697;28;20043;-78
2022/06/26 11:39:24;;;;;;;11.23;5.32;;;;;;;19.73;64.67;101519.50;5058581;28;20028;-78
2022/06/26 11:41:50;;;;;;;9.45;4.03;;;;;;;19.75;62.79;101524.69;5056375;28;20033;-78
2022/06/26 11:44:16;;;;;;;6.10;3.00;;;;;;;19.70;60.77;101523.19;5055447;28;20094;-78
2022/06/26 11:46:41;;;;;;;6.13;2.60;;;;;;;19.64;61.34;101538.50;5055572;28;20024;-78
2022/06/26 11:49:10;;;;;;;7.88;2.17;;;;;;;19.45;60.84;101536.81;5058884;28;20078;-77
2022/06/26 11:51:36;;;;;;;3.47;1.83;;;;;;;19.31;61.08;101537.53;5056014;28;20035;-78
2022/06/26 11:54:01;;;;;;;4.03;2.28;;;;;;;19.23;62.47;101539.69;5057790;28;20027;-78
2022/06/26 11:56:29;;;;;;;5.35;2.55;;;;;;;19.20;65.03;101534.59;5056566;28;20039;-78
2022/06/26 11:58:57;;;;;;;5.57;2.92;;;;;;;19.19;64.80;101535.53;5051927;28;20024;-76
2022/06/26 12:01:33;;;;;;;5.28;2.58;;;;;;;19.18;65.34;101537.31;5059888;28;20491;-77
2022/06/26 12:03:58;;;;;;;5.28;2.40;;;;;;;19.14;63.73;101537.53;5060672;28;20032;-76
2022/06/26 12:06:40;;;;;;;5.45;2.50;;;;;;;19.12;64.35;101537.63;5057677;28;20036;-75
2022/06/26 12:09:21;;;;;;;4.18;2.00;;;;;;;19.09;64.73;101540.41;5056681;28;20024;-75
2022/06/26 12:11:49;;;;;;;6.13;2.03;;;;;;;19.05;63.86;101544.13;5061192;28;20028;-76
2022/06/26 12:14:20;;;;;;;6.18;2.10;;;;;;;19.04;64.51;101547.69;5059307;28;20127;-75
2022/06/26 12:16:51;;;;;;;5.15;2.08;;;;;;;19.03;64.63;101556.53;5058552;28;20120;-78
2022/06/26 12:19:18;;;;;;;5.70;2.25;;;;;;;18.99;64.82;101568.16;5058337;28;20040;-78
2022/06/26 12:21:45;;;;;;;5.93;2.38;;;;;;;18.91;65.55;101561.47;5057087;28;20033;-81
2022/06/26 12:24:13;;;;;;;3.95;2.10;;;;;;;18.91;66.32;101561.47;5054278;28;20028;-77
2022/06/26 12:26:39;;;;;;;5.13;2.40;;;;;;;18.91;66.39;101565.88;5057831;28;20032;-77
2022/06/26 12:29:10;;;;;;;5.95;2.50;;;;;;;18.88;66.42;101566.91;5055836;28;20039;-78
2022/06/26 12:31:35;;;;;;;5.68;2.42;;;;;;;18.88;67.14;101564.25;5059794;28;20056;-78
2022/06/26 12:34:04;;;;;;;6.68;2.83;;;;;;;18.87;67.63;101565.19;5058276;28;20102;-78
2022/06/26 12:36:29;;;;;;;4.80;2.40;;;;;;;18.87;67.48;101570.47;5053966;28;21970;-80
2022/06/26 12:38:55;;;;;;;4.63;2.47;;;;;;;18.89;67.94;101558.06;5057083;28;20155;-79
2022/06/26 12:41:20;;;;;;;4.43;2.50;;;;;;;18.92;67.85;101557.03;5058222;28;20395;-78
2022/06/26 12:43:51;;;;;;;5.63;3.10;;;;;;;18.93;67.55;101554.34;5056595;28;20135;-78
2022/06/26 12:46:17;;;;;;;5.20;3.13;;;;;;;18.98;67.55;101556.78;5056985;28;20395;-78
2022/06/26 12:48:43;;;;;;;6.38;2.70;;;;;;;19.04;68.28;101547.69;5055894;28;20025;-78
2022/06/26 12:51:08;;;;;;;6.97;2.65;;;;;;;19.07;65.56;101544.91;5056922;28;20029;-78
2022/06/26 12:53:34;;;;;;;5.25;2.40;;;;;;;19.12;63.93;101542.91;5054241;28;20032;-79
2022/06/26 12:55:59;;;;;;;3.90;2.10;;;;;;;19.20;63.64;101550.44;5061399;28;20032;-78
2022/06/26 12:58:25;;;;;;;3.20;1.70;;;;;;;19.25;62.37;101553.66;5055889;28;20086;-78
2022/06/26 13:00:50;;;;;;;4.72;1.90;;;;;;;19.30;63.93;101562.19;5054356;28;20087;-79
2022/06/26 13:03:15;;;;;;;4.80;2.20;;;;;;;19.35;63.53;101565.47;5053630;28;20732;-78
2022/06/26 13:05:41;;;;;;;4.35;1.90;;;;;;;19.39;63.00;101564.34;5053452;28;20102;-78
2022/06/26 13:08:06;;;;;;;6.65;1.88;;;;;;;19.44;61.97;101561.50;5056331;28;20375;-79
2022/06/26 13:10:31;;;;;;;3.25;1.75;;;;;;;19.47;60.05;101557.84;5051208;28;20025;-78
2022/06/26 13:12:57;;;;;;;4.35;1.90;;;;;;;19.50;60.91;101558.53;5055175;28;20467;-78
2022/06/26 13:15:22;;;;;;;4.55;1.83;;;;;;;19.51;60.33;101562.03;5051815;28;20096;-78
2022/06/26 13:17:48;;;;;;;3.55;1.75;;;;;;;19.50;61.47;101558.53;5055118;28;20074;-78
2022/06/26 13:20:13;;;;;;;3.60;1.70;;;;;;;19.56;62.39;101552.94;5057476;28;20082;-78
2022/06/26 13:22:39;;;;;;;2.88;1.65;;;;;;;19.59;62.75;101559.84;5058377;28;21068;-78
2022/06/26 13:25:05;;;;;;;4.13;1.75;;;;;;;19.60;60.44;101572.09;5064395;28;20098;-78
2022/06/26 13:27:30;;;;;;;4.88;2.20;;;;;;;19.62;61.98;101566.75;5065595;28;20119;-78
2022/06/26 13:29:55;;;;;;;5.03;2.00;;;;;;;19.64;61.42;101559.63;5057662;28;20440;-78
2022/06/26 13:32:23;;;;;;;4.25;1.75;;;;;;;19.68;59.80;101564.66;5063631;28;20089;-78
2022/06/26 13:34:48;;;;;;;3.78;1.63;;;;;;;19.72;61.02;101567.97;5053737;28;20029;-77
2022/06/26 13:37:16;;;;;;;4.00;2.08;;;;;;;19.70;60.80;101567.19;5057347;28;20357;-77
2022/06/26 13:39:41;;;;;;;4.43;1.98;;;;;;;19.67;60.40;101562.06;5058809;28;20430;-78
2022/06/26 13:42:07;;;;;;;4.10;1.95;;;;;;;19.65;59.31;101566.56;5066142;28;20040;-77
2022/06/26 13:44:32;;;;;;;3.20;1.60;;;;;;;19.62;58.38;101561.47;5062109;28;20029;-78
2022/06/26 13:46:57;;;;;;;4.18;1.60;;;;;;;19.64;60.03;101560.44;5061621;28;20503;-78
2022/06/26 13:49:22;;;;;;;2.53;1.40;;;;;;;19.66;58.95;101563.88;5062306;28;20063;-78
2022/06/26 13:51:48;;;;;;;4.47;1.40;;;;;;;19.67;58.42;101567.34;5063580;28;20503;-78
2022/06/26 13:54:14;;;;;;;3.72;1.38;;;;;;;19.60;56.85;101565.97;5064876;28;20036;-78
2022/06/26 13:56:39;;;;;;;1.95;1.23;;;;;;;19.51;58.38;101565.50;5058431;28;20484;-78
2022/06/26 13:59:04;;;;;;;3.83;1.73;;;;;;;19.45;57.29;101559.69;5054964;28;20033;-79
2022/06/26 14:01:30;;;;;;;4.18;1.73;;;;;;;19.42;60.13;101556.28;5056020;28;20511;-78
2022/06/26 14:03:55;;;;;;;3.72;1.40;;;;;;;19.44;60.44;101564.16;5050834;28;20040;-78
2022/06/26 14:06:21;;;;;;;3.00;1.38;;;;;;;19.46;61.62;101557.00;5044062;28;20033;-78
2022/06/26 14:08:46;;;;;;;4.28;1.65;;;;;;;19.47;61.24;101558.69;5048811;28;20031;-77
2022/06/26 14:11:12;;;;;;;3.38;1.45;;;;;;;19.51;60.51;101565.50;5052711;28;20565;-78
2022/06/26 14:13:37;;;;;;;4.32;1.60;;;;;;;19.54;62.17;101565.34;5047294;28;20036;-77
2022/06/26 14:16:03;;;;;;;3.58;1.60;;;;;;;19.55;61.17;101561.78;5046747;28;20028;-78
2022/06/26 14:18:28;;;;;;;3.45;1.42;;;;;;;19.55;60.07;101568.88;5048661;28;20044;-77
2022/06/26 14:20:54;;;;;;;2.75;1.52;;;;;;;19.57;62.61;101566.97;5046333;28;20032;-79
2022/06/26 14:26:04;;;;;;;3.85;1.42;;;;;;;19.55;60.30;101561.78;5052770;28;20079;-79
2022/06/26 14:28:31;;;;;;;2.90;1.55;;;;;;;19.58;62.12;101563.41;5048029;28;20463;-78
2022/06/26 14:30:58;;;;;;;3.33;1.50;;;;;;;19.60;61.74;101563.34;5050128;28;20084;-79
2022/06/26 14:33:24;;;;;;;3.67;1.52;;;;;;;19.63;61.63;101568.47;5050709;28;20128;-78
2022/06/26 14:35:50;;;;;;;2.33;1.38;;;;;;;19.66;61.07;101570.91;5050997;28;20119;-80
2022/06/26 14:38:15;;;;;;;3.95;1.80;;;;;;;19.65;59.20;101574.50;5051217;28;20422;-79
2022/06/26 14:40:41;;;;;;;3.05;1.42;;;;;;;19.61;58.89;101570.31;5053090;28;20051;-79
2022/06/26 14:43:06;;;;;;;2.85;1.60;;;;;;;19.57;58.43;101569.63;5057197;28;20039;-78
2022/06/26 14:45:32;;;;;;;3.63;1.50;;;;;;;19.57;59.31;101569.63;5055977;28;20062;-79
2022/06/26 14:47:58;;;;;;;3.35;1.65;;;;;;;19.56;58.40;101571.41;5047847;28;20028;-78
2022/06/26 14:50:23;;;;;;;3.28;1.60;;;;;;;19.56;58.69;101560.00;5053046;28;20036;-78
2022/06/26 14:52:51;;;;;;;3.28;1.40;;;;;;;19.54;59.60;101565.34;5050488;28;20464;-81
2022/06/26 14:55:18;;;;;;;4.18;1.70;;;;;;;19.53;60.10;101558.38;5053456;28;20060;-80
2022/06/26 14:57:43;;;;;;;5.75;1.48;;;;;;;19.50;58.89;101547.97;5053960;28;20058;-80
2022/06/26 15:00:09;;;;;;;4.25;1.65;;;;;;;19.50;60.26;101545.34;5048368;28;20476;-79
2022/06/26 15:02:34;;;;;;;2.65;1.40;;;;;;;19.51;61.22;101548.84;5047996;28;20597;-80
2022/06/26 15:04:59;;;;;;;3.03;1.70;;;;;;;19.52;60.50;101553.19;5049551;28;20102;-80
2022/06/26 15:07:25;;;;;;;1.75;1.40;;;;;;;19.55;59.46;101548.59;5053682;28;20040;-80
2022/06/26 15:09:50;;;;;;;3.65;1.63;;;;;;;19.58;58.92;101544.09;5053756;28;20123;-77
2022/06/26 15:12:15;;;;;;;3.33;1.60;;;;;;;19.60;60.34;101537.78;5060139;28;20024;-78
2022/06/26 15:14:41;;;;;;;2.88;1.38;;;;;;;19.65;60.82;101526.97;5061202;28;20438;-78
2022/06/26 15:17:06;;;;;;;3.60;1.48;;;;;;;19.68;61.55;101518.91;5058634;28;20496;-78
2022/06/26 15:19:31;;;;;;;3.80;1.73;;;;;;;19.70;59.76;101523.19;5059656;28;20047;-78
2022/06/26 15:21:56;;;;;;;3.95;1.50;;;;;;;19.74;58.81;101529.13;5057263;28;20031;-77
2022/06/26 15:24:24;;;;;;;2.78;1.50;;;;;;;19.79;59.30;101524.47;5054302;28;20434;-77
2022/06/26 15:26:49;;;;;;;2.58;1.60;;;;;;;19.87;56.94;101524.09;5049956;28;20029;-79
2022/06/26 15:29:14;;;;;;;3.00;1.40;;;;;;;19.96;56.80;101528.03;5050774;28;20387;-79
2022/06/26 15:31:40;;;;;;;3.38;1.40;;;;;;;20.05;58.21;101522.22;5053204;28;20373;-79
2022/06/26 15:34:06;;;;;;;3.00;1.30;;;;;;;20.15;58.74;101523.41;5056713;28;20491;-79
2022/06/26 15:36:31;;;;;;;2.67;1.30;;;;;;;20.19;57.28;101529.38;5058035;28;20028;-79
2022/06/26 15:38:56;;;;;;;2.88;1.33;;;;;;;20.26;58.85;101517.53;5057475;28;20025;-78
2022/06/26 15:41:22;;;;;;;2.70;1.33;;;;;;;20.30;55.87;101505.03;5058111;28;20028;-78
2022/06/26 15:43:47;;;;;;;3.35;1.50;;;;;;;20.35;56.55;101497.66;5056914;28;20125;-79
2022/06/26 15:46:13;;;;;;;2.70;1.33;;;;;;;20.37;56.90;101490.50;5060467;28;20032;-79
2022/06/26 15:48:38;;;;;;;3.53;1.40;;;;;;;20.37;57.85;101490.50;5058635;28;20027;-78
2022/06/26 15:51:03;;;;;;;3.38;1.35;;;;;;;20.36;57.38;101487.97;5057816;28;20447;-78
2022/06/26 15:53:29;;;;;;;2.50;1.50;;;;;;;20.34;57.59;101489.84;5048679;28;20033;-78
2022/06/26 15:55:55;;;;;;;3.85;1.70;;;;;;;20.35;57.08;101492.38;5055262;28;20032;-80
2022/06/26 15:58:21;;;;;;;5.70;1.90;;;;;;;20.39;57.94;101488.63;5059804;28;20040;-79
2022/06/26 16:00:46;;;;;;;3.15;1.60;;;;;;;20.48;56.89;101487.25;5059114;28;20024;-79
2022/06/26 16:03:11;;;;;;;3.15;1.60;;;;;;;20.56;57.24;101489.44;5060387;28;20489;-78
2022/06/26 16:05:37;;;;;;;3.65;1.80;;;;;;;20.67;56.09;101494.94;5060629;28;20036;-79
2022/06/26 16:08:03;;;;;;;3.95;1.80;;;;;;;20.76;56.52;101488.31;5051715;28;20086;-79
2022/06/26 16:10:28;;;;;;;2.58;1.52;;;;;;;20.84;56.45;101493.16;5056357;28;20032;-79
2022/06/26 16:12:53;;;;;;;4.68;2.03;;;;;;;20.93;57.57;101488.16;5057893;28;20488;-78
2022/06/26 16:15:18;;;;;;;7.07;2.42;;;;;;;20.97;56.87;101488.84;5057208;28;20475;-79
2022/06/26 16:17:45;;;;;;;3.88;2.20;;;;;;;20.98;56.70;101498.50;5060060;28;20032;-79
2022/06/26 16:20:11;;;;;;;4.03;1.98;;;;;;;20.95;55.40;101493.38;5055055;28;20036;-79
2022/06/26 16:28:04;;;;;;;4.55;1.77;;;;;;;21.45;54.12;101487.75;5061099;28;20089;-79
2022/06/26 16:30:30;;;;;;;2.67;1.60;;;;;;;21.65;53.56;101489.19;5054506;28;20055;-79
2022/06/26 16:32:55;;;;;;;2.80;1.77;;;;;;;21.73;53.13;101491.34;5051783;28;20119;-79
2022/06/26 16:35:22;;;;;;;3.50;1.58;;;;;;;21.75;53.79;101486.81;5054329;28;20020;-79
2022/06/26 16:37:47;;;;;;;3.58;1.90;;;;;;;21.67;53.48;101495.25;5048507;28;20503;-79
2022/06/26 16:40:13;;;;;;;2.90;1.60;;;;;;;21.52;52.69;101481.16;5047872;28;20036;-79
2022/06/26 16:42:38;;;;;;;2.47;1.55;;;;;;;21.38;51.48;101484.66;5051417;28;20039;-79
2022/06/26 16:45:04;;;;;;;3.90;1.90;;;;;;;21.25;54.54;101484.53;5052727;28;20120;-79
2022/06/26 16:47:30;;;;;;;3.47;1.92;;;;;;;21.10;54.01;101477.53;5052146;28;20190;-79
2022/06/26 16:49:55;;;;;;;4.28;1.90;;;;;;;20.91;54.51;101475.97;5054254;28;20599;-80
2022/06/26 16:52:20;;;;;;;2.85;1.60;;;;;;;20.77;56.21;101477.66;5055929;28;20025;-77
2022/06/26 16:54:46;;;;;;;3.28;1.63;;;;;;;20.67;55.63;101480.91;5062416;28;20376;-77
2022/06/26 16:57:11;;;;;;;3.33;1.73;;;;;;;20.54;55.13;101473.69;5064001;28;20032;-77
2022/06/26 16:59:36;;;;;;;3.28;1.80;;;;;;;20.44;56.36;101460.16;5060806;28;20048;-76
2022/06/26 17:02:02;;;;;;;3.17;1.85;;;;;;;20.34;56.22;101464.25;5053774;28;21497;-76
2022/06/26 17:04:27;;;;;;;3.80;2.08;;;;;;;20.24;56.18;101457.78;5054800;28;20040;-76
2022/06/26 17:06:53;;;;;;;3.58;2.10;;;;;;;20.17;56.91;101447.56;5058910;28;20048;-76
2022/06/26 17:09:18;;;;;;;3.08;1.50;;;;;;;20.10;56.81;101442.72;5062288;28;20020;-76
2022/06/26 17:11:44;;;;;;;3.15;1.80;;;;;;;20.04;58.65;101440.44;5055956;28;20060;-77
2022/06/26 17:14:09;;;;;;;4.53;2.00;;;;;;;19.98;58.18;101441.63;5058540;28;20375;-77
2022/06/26 17:16:34;;;;;;;4.28;1.80;;;;;;;19.92;57.68;101439.34;5056543;28;20032;-77
2022/06/26 17:19:00;;;;;;;3.72;1.90;;;;;;;19.84;58.39;101440.56;5056416;28;20044;-78
2022/06/26 17:21:25;;;;;;;4.10;1.88;;;;;;;19.79;58.48;101432.06;5054846;28;20037;-77
2022/06/26 17:23:50;;;;;;;5.88;2.03;;;;;;;19.76;59.26;101434.00;5056527;28;20503;-77
2022/06/26 17:26:16;;;;;;;4.63;1.88;;;;;;;19.70;58.46;101435.19;5058100;28;20077;-77
2022/06/26 17:28:41;;;;;;;4.72;2.20;;;;;;;19.67;59.10;101435.34;5055264;28;20059;-77
2022/06/26 17:31:07;;;;;;;3.17;1.83;;;;;;;19.66;60.63;101433.66;5058963;28;20530;-78
2022/06/26 17:33:32;;;;;;;3.50;1.90;;;;;;;19.67;61.15;101432.72;5055327;28;20437;-78
2022/06/26 17:35:58;;;;;;;4.63;2.42;;;;;;;19.66;63.42;101428.38;5056431;28;20325;-78
2022/06/26 17:38:23;;;;;;;3.80;2.05;;;;;;;19.65;62.41;101431.94;5057448;28;20079;-78
2022/06/26 17:40:49;;;;;;;3.75;2.45;;;;;;;19.64;61.69;101432.91;5062421;28;20029;-77
2022/06/26 17:43:14;;;;;;;4.50;1.92;;;;;;;19.63;60.68;101441.75;5060836;28;20032;-77
2022/06/26 17:45:39;;;;;;;4.35;2.00;;;;;;;19.62;61.43;101435.63;5065085;28;20032;-77
2022/06/26 17:48:05;;;;;;;5.20;1.80;;;;;;;19.60;61.88;101431.38;5063981;28;20024;-77
2022/06/26 17:50:32;;;;;;;3.83;1.98;;;;;;;19.56;61.69;101436.81;5062821;28;20525;-77
2022/06/26 17:52:58;;;;;;;3.38;1.80;;;;;;;19.53;60.76;101430.84;5065214;28;20032;-78
2022/06/26 17:55:26;;;;;;;3.42;1.77;;;;;;;19.51;60.08;101438.84;5066953;28;20036;-80
2022/06/26 17:57:52;;;;;;;3.38;1.73;;;;;;;19.51;59.78;101449.41;5065055;28;20413;-79
2022/06/26 18:00:23;;;;;;;3.15;1.73;;;;;;;19.49;61.30;101456.53;5066673;28;20055;-79
2022/06/26 18:03:03;;;;;;;3.80;1.70;;;;;;;19.47;59.97;101468.13;5063963;28;20028;-79
2022/06/26 18:05:30;;;;;;;3.95;1.90;;;;;;;19.44;60.54;101461.22;5062441;28;20086;-78
2022/06/26 18:07:56;;;;;;;4.05;2.10;;;;;;;19.40;60.98;101452.59;5056597;28;20044;-78
2022/06/26 18:10:22;;;;;;;3.33;1.80;;;;;;;19.40;61.31;101446.50;5060628;28;20052;-79
2022/06/26 18:12:51;;;;;;;3.17;1.90;;;;;;;19.37;61.16;101444.00;5058970;28;20097;-78
2022/06/26 18:15:17;;;;;;;3.40;1.90;;;;;;;19.36;61.43;101444.94;5059039;28;20559;-79
2022/06/26 18:17:43;;;;;;;5.97;2.10;;;;;;;19.39;61.62;101450.06;5050833;28;20024;-79
2022/06/26 18:20:11;;;;;;;4.55;2.40;;;;;;;19.44;63.83;101448.03;5060864;28;20060;-79
2022/06/26 18:22:36;;;;;;;4.03;2.35;;;;;;;19.46;62.85;101440.91;5060321;28;20090;-79
2022/06/26 18:25:02;;;;;;;5.63;2.70;;;;;;;19.51;63.62;101446.75;5058174;28;20025;-78
2022/06/26 18:27:28;;;;;;;5.65;2.70;;;;;;;19.56;61.71;101439.44;5056127;28;20025;-79
2022/06/26 18:29:54;;;;;;;5.28;2.60;;;;;;;19.65;61.76;101455.72;5059615;28;20036;-79
2022/06/26 18:32:20;;;;;;;5.28;2.35;;;;;;;19.68;61.52;101456.41;5057813;28;20402;-79
2022/06/26 18:34:46;;;;;;;3.75;1.80;;;;;;;19.68;61.25;101466.97;5059673;28;20060;-79
2022/06/26 18:37:11;;;;;;;4.40;2.00;;;;;;;19.67;61.03;101475.81;5061107;28;20055;-79
2022/06/26 18:39:36;;;;;;;4.13;2.00;;;;;;;19.68;60.61;101474.91;5061063;28;20036;-79
2022/06/26 18:42:02;;;;;;;3.22;1.73;;;;;;;19.68;61.20;101466.09;5056412;28;20029;-79
2022/06/26 18:44:28;;;;;;;3.10;1.90;;;;;;;19.69;61.40;101462.53;5058695;28;20372;-79
2022/06/26 18:46:54;;;;;;;2.95;1.73;;;;;;;19.69;62.53;101450.19;5055887;28;20063;-78
2022/06/26 18:49:19;;;;;;;3.60;1.75;;;;;;;19.67;63.28;101444.16;5063429;28;20196;-79
2022/06/26 18:51:45;;;;;;;4.18;2.10;;;;;;;19.62;63.79;101453.25;5060413;28;20424;-78
2022/06/26 18:54:10;;;;;;;3.25;1.75;;;;;;;19.55;64.39;101442.19;5055950;28;20036;-79
2022/06/26 18:56:35;;;;;;;3.75;1.90;;;;;;;19.46;64.71;101455.88;5061560;28;20044;-79
2022/06/26 18:59:02;;;;;;;3.15;2.08;;;;;;;19.40;65.27;101467.59;5057789;28;20043;-78
2022/06/26 19:01:27;;;;;;;4.80;2.03;;;;;;;19.31;65.87;101457.50;5056143;28;20044;-79
2022/06/26 19:03:53;;;;;;;2.90;2.10;;;;;;;19.20;65.80;101456.31;5059624;28;20028;-78
2022/06/26 19:06:19;;;;;;;4.30;2.10;;;;;;;19.13;66.87;101475.16;5059533;28;20475;-79
2022/06/26 19:08:44;;;;;;;4.47;2.22;;;;;;;19.06;67.45;101475.47;5057815;28;20024;-78
2022/06/26 19:14:38;;;;;;;4.32;2.15;;;;;;;19.01;67.52;101476.66;5061171;28;20037;-78
2022/06/26 19:16:39;;;;;;;8.35;2.40;;;;;;;18.88;67.77;101465.84;5058322;28;20518;-78
2022/06/26 19:19:04;;;;;;;5.82;2.67;;;;;;;18.80;67.84;101466.22;5057256;28;20048;-78
2022/06/26 19:21:30;;;;;;;4.95;2.45;;;;;;;18.73;68.19;101465.69;5061594;28;20555;-78
2022/06/26 19:23:55;;;;;;;5.07;2.58;;;;;;;18.67;68.00;101452.84;5061511;28;20060;-78
2022/06/26 19:26:20;;;;;;;4.65;2.75;;;;;;;18.60;68.54;101457.56;5059638;28;20054;-79
2022/06/26 19:28:46;;;;;;;4.85;2.90;;;;;;;18.55;69.51;101456.94;5058556;28;20033;-78
2022/06/26 19:31:12;;;;;;;12.68;8.25;;;;;;;18.51;68.79;101444.84;5056673;28;20111;-78
2022/06/26 19:33:38;;;;;;;33.83;26.50;;;;;;;18.45;68.59;101440.72;5051009;28;20025;-78
2022/06/26 19:36:04;;;;;;;33.22;24.33;;;;;;;18.41;69.15;101447.06;5052729;28;20039;-77
2022/06/26 19:38:29;;;;;;;16.42;11.98;;;;;;;18.38;69.04;101456.91;5051602;28;20032;-77
2022/06/26 19:40:55;;;;;;;18.13;10.48;;;;;;;18.34;69.59;101451.78;5051835;28;20039;-78
2022/06/26 19:43:20;;;;;;;15.82;11.10;;;;;;;18.29;69.36;101453.78;5056903;28;20029;-77
2022/06/26 19:45:45;;;;;;;13.75;9.40;;;;;;;18.26;68.30;101459.22;5059437;28;20428;-77
2022/06/26 19:48:11;;;;;;;11.80;8.48;;;;;;;18.23;69.68;101462.00;5058783;28;20096;-77
2022/06/26 19:50:37;;;;;;;11.80;7.43;;;;;;;18.21;70.13;101461.22;5056154;28;20036;-77
2022/06/26 19:53:03;;;;;;;8.23;6.25;;;;;;;18.20;70.34;101481.41;5057384;28;20038;-78
2022/06/26 19:55:29;;;;;;;8.77;5.45;;;;;;;18.16;70.68;101479.88;5065585;28;20078;-79
2022/06/26 19:57:55;;;;;;;6.93;3.90;;;;;;;18.13;70.22;101490.56;5060683;28;20055;-78
2022/06/26 20:00:22;;;;;;;5.07;3.60;;;;;;;18.09;70.46;101498.69;5059223;28;20029;-78